x

Gulf Of Maine - 78 Nm East Of Portsmouth, Nh (44005) Wave Buoy

12:50 - Sun 7th Feb 2016 All times are EST. -5 hours from GMT.

  • Sig Wave height 5.9ft
  • Peak Period 6s
  • Average Period 5s
  • Wind
    22mph, 25mph gusts
  • Sea Temp 43°f
  • Ar Temp 39°f
  • Sea Pressure 1020.9mb
  • Gulf Of Maine - 78 Nm East Of Portsmouth, Nh
  • Gulf Of Maine - 78 Nm East Of Portsmouth, Nh

More Historic Weather Station data

Upgrade to MSW Pro to gain access to the past 30 days of data for over 8000 Wavebouys and Weather Stations around the globe.

Join Pro

Comparision Forecast

View Surf forecast
   
Dom 02/07 12:50 6ft 6s 5s 22 25 mph 1020.9mb 43f 39f
Sáb 02/06 11:50 6ft 6s 5s 25 29 mph 1021.5mb 43f 39f
10:50 5ft 6s 5s 22 29 mph 1022.1mb 43f 39f
9:50 5ft 6s 5s 25 29 mph 1022.3mb 43f 38f
8:50 5ft 6s 4s 22 27 mph 1022.9mb 43f 38f
7:50 5ft 5s 4s 25 27 mph 1023.1mb 43f 38f
6:50 5ft 6s 4s 22 27 mph 1023.5mb 43f 38f
5:50 4.5ft 5s 4s 22 29 mph 1023.6mb 44f 38f
4:50 4.5ft 5s 4s 22 27 mph 1023.9mb 43f 38f
3:50 4.5ft 10s 4s 22 27 mph 1024.1mb 43f 37f
2:50 3.5ft 10s 4s 22 29 mph 1024.5mb 43f 37f
1:50 4ft 11s 5s 20 25 mph 1024.7mb 43f 36f
12:50 3.5ft 10s 5s 20 25 mph 1025mb 43f 35f
11:50 3.5ft 11s 6s 16 20 mph 1025.9mb 43f 35f
10:50 3.5ft 11s 6s 11 16 mph 1026.7mb 43f 35f
9:50 4ft 11s 6s 7 9 mph 1026.9mb 43f 34f
8:50 4.5ft 11s 6s 9 11 mph 1026.8mb 43f 33f
7:50 5ft 5s 5s 11 16 mph 1026.2mb 43f 33f
6:50 5ft 5s 5s 13 18 mph 1025.5mb 43f 32f
5:50 6ft 8s 5s 16 20 mph 1025.1mb 43f 32f
4:50 6ft 6s 5s 20 25 mph 1024.2mb 43f 32f
3:50 6ft 5s 5s 20 25 mph 1023.5mb 43f 31f
2:50 7ft 6s 5s 25 31 mph 1022.9mb 43f 30f
1:50 7.5ft 6s 5s 25 31 mph 1022.3mb 43f 30f
12:50 8ft 6s 5s 27 31 mph 1021.6mb 43f 29f
Sex 02/05 11:50 8.5ft 7s 5s 27 31 mph 1020mb 43f 30f
10:50 9ft 6s 5s 27 34 mph 1018.9mb 43f 31f
9:50 9ft 6s 6s 27 34 mph 1017.2mb 43f 33f
8:50 11ft 8s 6s 29 34 mph 1016.4mb 43f 33f
7:50 13.5ft 7s 6s 34 43 mph 1015.3mb 43f 31f
6:50  -   -   -  36
mph
1013.1mb - 32f
5:50 11ft 7s 6s 38 47 mph 1010.1mb 44f 32f
4:50 12ft 7s 6s 34 40 mph 1010.4mb 44f 33f
3:50 12ft 7s 6s 31 38 mph 1010.4mb 44f 33f
2:50 9ft 7s 5s 29 36 mph 1010.4mb 44f 33f
1:50 9.5ft 6s 5s 36 43 mph 1009.3mb 44f 34f
12:50 8.5ft 6s 5s 31 36 mph 1010.6mb 44f 34f
11:50 7.5ft 6s 5s 29 36 mph 1011.5mb 44f 35f
10:50 7.5ft 6s 5s 29 36 mph 1013.6mb 44f 35f
9:50 7.5ft 6s 5s 27 29 mph 1015.7mb 44f 35f
8:50 7ft 5s 5s 29 36 mph 1013.9mb 44f 35f
7:50 6ft 10s 5s 27 31 mph 1015.2mb 44f 35f
6:50 6ft 5s 5s 25 29 mph 1016mb 44f 35f
5:50 6.5ft 10s 5s 25 29 mph 1015.7mb 44f 37f
4:50 6ft 10s 5s 22 29 mph 1016.7mb 44f 37f
3:50 7ft 9s 6s 22 25 mph 1016.7mb 44f 40f
2:50 6ft 10s 6s 22 25 mph 1016.3mb 44f 41f
1:50 7ft 8s 6s 20 22 mph 1017.4mb 44f 42f
12:50 6ft 9s 6s 16 20 mph 1016.9mb 44f 44f
Qui 02/04 11:50 6ft 8s 6s 18 22 mph 1015.9mb 44f 45f
10:50 6ft 9s 6s 18 20 mph 1016.6mb 44f 45f
9:50 5.5ft 9s 6s 16 20 mph 1017mb 44f 46f
8:50 5ft 9s 6s 16 22 mph 1017mb 44f 46f
7:50 5ft 8s 6s 11 13 mph 1016.4mb 44f 47f
6:50 5ft 8s 6s 9 11 mph 1015.8mb 44f 47f
5:50 6ft 8s 7s 11 13 mph 1015.8mb 44f 47f
4:50 5.5ft 8s 6s 7
mph
1015mb 44f 46f
3:50 5.5ft 8s 6s 7 9 mph 1014.1mb 44f 46f
2:50 6ft 8s 6s 9
mph
1012.9mb 44f 46f
1:50 6ft 8s 6s 7 9 mph 1012.6mb 44f 46f
12:50 6ft 8s 6s 7 9 mph 1012.4mb 44f 47f
11:50 6ft 8s 6s 13 18 mph 1012.5mb 44f 47f
10:50 6.5ft 8s 6s 20 29 mph 1012.5mb 44f 48f
9:50 7ft 8s 6s 16 20 mph 1011.6mb 44f 48f
8:50 8ft 8s 7s 16 18 mph 1011.6mb 44f 47f
7:50 8.5ft 8s 6s 16 18 mph 1011.4mb 44f 47f
6:50 9.5ft 8s 7s 16 20 mph 1011.3mb 44f 47f
5:50 10ft 8s 7s 18 20 mph 1011.3mb 44f 47f
4:50 9ft 8s 6s 16 18 mph 1011.3mb 44f 47f
3:50 10ft 9s 6s 16 18 mph 1011.1mb 44f 47f
2:50 11ft 8s 6s 20 22 mph 1011.5mb 44f 48f
1:50 11ft 8s 6s 27 34 mph 1010.4mb 44f 50f
12:50 12ft 8s 6s 31 38 mph 1009.3mb 44f 51f
Qua 02/03 11:50 13ft 8s 7s 36 43 mph 1009.2mb 44f 50f
10:50 16ft 8s 7s 38 49 mph 1010.4mb 44f 49f
9:50 16.5ft 8s 7s 43 49 mph 1009.2mb 44f 51f
8:50 15ft 8s 7s 36 43 mph 1011.5mb 44f 49f
7:50  -   -   -  36
mph
- - -
6:50 13.5ft 8s 6s 36 43 mph 1013.6mb 44f 49f
5:50 13.5ft 8s 6s 36 43 mph 1014.5mb 44f 47f
4:50 10.5ft 8s 6s 31 40 mph 1015.7mb 44f 46f
3:50 11.5ft 8s 6s 31 38 mph 1016.7mb 44f 45f
2:50  -   -   -  31 38 mph 1018.1mb 44f 44f
1:50 10ft 7s 6s 29 36 mph 1019.4mb 44f 44f
12:50 8.5ft 7s 5s 29 34 mph 1021.6mb 44f 43f
11:50 7.5ft 7s 5s 27 31 mph 1023.9mb 43f 43f
10:50 7ft 6s 5s 27 34 mph 1025.7mb 44f 42f
9:50 5.5ft 5s 5s 29 34 mph 1026.4mb 43f 42f
8:50 5ft 5s 4s 27 31 mph 1027mb 43f 42f
7:50 4ft 4s 4s 27 31 mph 1027.8mb 43f 42f